Three Rivers, MI

1:28 PM EDT on August 20, 2017 (GMT -0400)
Three Rivers Municipal-Haines

Weather History for KHAI - October, 2012

Change the Weather History Date:

Monday, October 15, 2012

  Actual Average Record
Temperature  
Mean Temperature 44 °F -  
Max Temperature 51 °F 65 °F 85 °F (1989)
Min Temperature 38 °F 42 °F 27 °F (1993)
Degree Days  
Heating Degree Days 20    
Moisture  
Dew Point 44 °F    
Average Humidity 87    
Maximum Humidity 94    
Minimum Humidity 64    
Precipitation  
Precipitation 0.00 in - - ()
Sea Level Pressure  
Sea Level Pressure 29.85 in    
Wind  
Wind Speed 8 mph (WNW)    
Max Wind Speed 14 mph    
Max Gust Speed 22 mph    
Visibility 7 miles    
Events Rain    
Averages and records for this station are not official NWS values.
T = Trace of Precipitation, MM = Missing Value Source: NWS Daily Summary

Daily Weather History Graph

Daily Weather History Graph

Search for Another Location

Airport or City:

Trip Planner

Search our weather history database for the weather conditions in past years. The results will help you decide how hot, cold, wet, or windy it might be!

Date:

Astronomy

Oct. 15, 2012 Rise Set
Actual Time 7:55 AM EDT 6:59 PM EDT
Civil Twilight 7:27 AM EDT 7:28 PM EDT
Nautical Twilight 6:54 AM EDT 8:00 PM EDT
Astronomical Twilight 6:22 AM EDT 8:32 PM EDT
Moon 8:05 AM EDT (10/15) 6:57 PM EDT (10/15)
Length of Visible Light 12h 00m
Length of Day
11h 04m
New Moon, 0% of the Moon is Illuminated
Oct 15
New Moon
Oct 21
First Quarter
Oct 29
Full
Nov 6
Last Quarter
Nov 13
New

Hourly Weather History & Observations

Time (EDT) Temp. Dew Point Humidity Pressure Visibility Wind Dir Wind Speed Gust Speed Precip Events Conditions
12:14 AM 51.1 °F 48.7 °F 92% 29.67 in 3.0 mi West 11.5 mph 21.9 mph N/A   Heavy Drizzle
12:34 AM 50.9 °F 48.7 °F 92% 29.68 in 4.0 mi WNW 11.5 mph 17.3 mph N/A   Drizzle
12:53 AM 50.7 °F 48.6 °F 92% 29.69 in 4.0 mi West 11.5 mph 17.3 mph N/A   Drizzle
1:14 AM 50.5 °F 48.2 °F 92% 29.70 in 7.0 mi West 13.8 mph 21.9 mph N/A   Overcast
1:34 AM 50.5 °F 48.2 °F 92% 29.70 in 7.0 mi West 11.5 mph 17.3 mph N/A   Overcast
1:53 AM 50.5 °F 48.0 °F 91% 29.71 in 4.0 mi West 10.4 mph - N/A Rain Rain
2:14 AM 50.4 °F 48.0 °F 92% 29.71 in 3.0 mi West 9.2 mph 16.1 mph N/A   Heavy Drizzle
2:33 AM 50.2 °F 47.8 °F 92% 29.72 in 7.0 mi West 12.7 mph 16.1 mph N/A   Light Drizzle
2:54 AM 50.2 °F 47.8 °F 92% 29.72 in 3.0 mi West 5.8 mph - N/A   Heavy Drizzle
3:14 AM 50.0 °F 47.8 °F 92% 29.72 in 4.0 mi West 5.8 mph - N/A Rain Rain
3:34 AM 50.0 °F 48.2 °F 94% 29.73 in 3.0 mi NW 8.1 mph - N/A Rain Rain
3:54 AM 49.1 °F 46.8 °F 92% 29.73 in 3.0 mi WNW 6.9 mph - N/A Rain Rain
4:13 AM 49.1 °F 46.9 °F 92% 29.73 in 3.0 mi West 3.5 mph - N/A   Drizzle
4:34 AM 49.5 °F 47.5 °F 93% 29.73 in 4.0 mi West 6.9 mph - N/A Rain Rain
4:53 AM 49.5 °F 47.5 °F 93% 29.73 in 3.0 mi West 8.1 mph - N/A Rain Rain
5:14 AM 49.3 °F 47.3 °F 93% 29.73 in 3.0 mi WNW 6.9 mph - N/A Rain Heavy Rain
5:54 AM 48.6 °F 46.4 °F 92% 29.74 in 5.0 mi NW 8.1 mph - N/A   Light Drizzle
6:14 AM 48.4 °F 46.0 °F 92% 29.75 in 10.0 mi WNW 4.6 mph - N/A   Overcast
6:33 AM 48.4 °F 46.4 °F 93% 29.76 in 4.0 mi WNW 4.6 mph - N/A Rain Light Rain
6:54 AM 48.2 °F 45.7 °F 91% 29.76 in 5.0 mi NW 6.9 mph - N/A Rain Light Rain
7:14 AM 47.7 °F 45.3 °F 92% 29.77 in 3.0 mi WNW 6.9 mph - N/A Rain Heavy Rain
7:33 AM 47.5 °F 45.5 °F 93% 29.78 in 3.0 mi WNW 5.8 mph - N/A Rain Rain
7:54 AM 47.5 °F 45.5 °F 93% 29.78 in 2.5 mi NW 4.6 mph - N/A   Heavy Drizzle
8:14 AM 47.7 °F 45.5 °F 92% 29.79 in 5.0 mi NW 4.6 mph - N/A   Light Drizzle
8:33 AM 47.5 °F 45.5 °F 93% 29.80 in 5.0 mi NW 4.6 mph - N/A   Overcast
8:54 AM 47.7 °F 45.5 °F 92% 29.81 in 3.0 mi NW 5.8 mph - N/A   Overcast
9:14 AM 47.8 °F 45.5 °F 92% 29.82 in 4.0 mi NW 4.6 mph - N/A   Overcast
9:33 AM 47.5 °F 45.1 °F 92% 29.82 in 4.0 mi NW 4.6 mph - N/A   Overcast
9:54 AM 47.8 °F 45.5 °F 92% 29.83 in 7.0 mi NW 4.6 mph - N/A   Overcast
10:14 AM 48.2 °F 45.9 °F 92% 29.83 in 7.0 mi WNW 4.6 mph - N/A   Overcast
10:34 AM 48.4 °F 46.4 °F 93% 29.84 in 3.0 mi WNW 3.5 mph - N/A   Drizzle
10:54 AM 48.4 °F 46.4 °F 93% 29.85 in 7.0 mi West 5.8 mph - N/A   Overcast
11:13 AM 48.4 °F 46.0 °F 92% 29.85 in 10.0 mi West 5.8 mph - N/A   Overcast
11:34 AM 48.7 °F 46.4 °F 92% 29.86 in 7.0 mi West 4.6 mph - N/A Rain Light Rain
11:54 AM 48.7 °F 46.4 °F 92% 29.86 in 10.0 mi West 5.8 mph - N/A   Overcast
12:13 PM 48.7 °F 46.2 °F 91% 29.87 in 7.0 mi West 6.9 mph - N/A   Overcast
12:34 PM 49.1 °F 46.4 °F 90% 29.87 in 7.0 mi West 8.1 mph - N/A   Overcast
12:54 PM 49.1 °F 46.0 °F 89% 29.87 in 10.0 mi WNW 8.1 mph - N/A   Overcast
1:13 PM 49.1 °F 46.0 °F 89% 29.88 in 10.0 mi West 6.9 mph - N/A   Overcast
1:34 PM 49.1 °F 45.1 °F 86% 29.88 in 10.0 mi WNW 10.4 mph - N/A   Overcast
1:54 PM 48.6 °F 44.2 °F 85% 29.88 in 10.0 mi NW 4.6 mph - N/A   Overcast
2:14 PM 48.6 °F 43.7 °F 83% 29.89 in 10.0 mi WNW 9.2 mph - N/A   Overcast
2:34 PM 48.7 °F 43.9 °F 83% 29.89 in 10.0 mi NW 9.2 mph - N/A   Overcast
2:54 PM 49.1 °F 43.7 °F 82% 29.90 in 10.0 mi WNW 8.1 mph - N/A   Overcast
3:14 PM 49.1 °F 43.7 °F 82% 29.90 in 10.0 mi WNW 8.1 mph - N/A   Overcast
3:34 PM 49.5 °F 43.9 °F 81% 29.90 in 10.0 mi WNW 10.4 mph - N/A   Overcast
3:53 PM 50.4 °F 44.1 °F 79% 29.90 in 10.0 mi WNW 10.4 mph - N/A   Overcast
4:14 PM 50.4 °F 42.4 °F 74% 29.90 in 10.0 mi NW 8.1 mph - N/A   Overcast
4:34 PM 50.4 °F 41.4 °F 71% 29.90 in 10.0 mi WNW 9.2 mph - N/A   Overcast
4:53 PM 50.5 °F 41.5 °F 71% 29.91 in 10.0 mi WNW 12.7 mph - N/A   Overcast
5:14 PM 50.4 °F 38.7 °F 64% 29.91 in 10.0 mi NW 11.5 mph - N/A   Overcast
5:34 PM 50.0 °F 39.4 °F 67% 29.92 in 10.0 mi NW 9.2 mph - N/A   Overcast
5:53 PM 49.3 °F 40.1 °F 71% 29.94 in 10.0 mi NNW 6.9 mph - N/A   Overcast
6:14 PM 49.1 °F 40.1 °F 71% 29.94 in 10.0 mi NW 6.9 mph - N/A   Overcast
6:34 PM 48.6 °F 39.7 °F 72% 29.94 in 10.0 mi NW 11.5 mph - N/A   Overcast
6:54 PM 48.2 °F 39.2 °F 71% 29.94 in 10.0 mi NW 9.2 mph - N/A   Overcast
7:14 PM 47.7 °F 39.0 °F 72% 29.94 in 10.0 mi WNW 4.6 mph - N/A   Overcast
7:33 PM 47.5 °F 39.4 °F 73% 29.94 in 10.0 mi WNW 4.6 mph - N/A   Overcast
7:54 PM 47.3 °F 40.1 °F 76% 29.95 in 10.0 mi WNW 3.5 mph - N/A   Overcast
8:14 PM 46.8 °F 39.7 °F 77% 29.94 in 10.0 mi Calm Calm - N/A   Mostly Cloudy
8:33 PM 44.8 °F 39.2 °F 81% 29.95 in 10.0 mi Calm Calm - N/A   Scattered Clouds
8:54 PM 42.1 °F 37.2 °F 83% 29.95 in 10.0 mi Calm Calm - N/A   Clear
9:14 PM 43.2 °F 39.2 °F 86% 29.96 in 10.0 mi Calm Calm - N/A   Clear
9:33 PM 40.5 °F 37.2 °F 88% 29.96 in 10.0 mi Calm Calm - N/A   Clear
9:54 PM 39.7 °F 37.2 °F 91% 29.96 in 7.0 mi Calm Calm - N/A   Clear
10:14 PM 39.2 °F 37.0 °F 92% 29.96 in 10.0 mi Calm Calm - N/A   Clear
10:33 PM 39.2 °F 37.2 °F 93% 29.97 in 7.0 mi Calm Calm - N/A   Clear
10:54 PM 39.0 °F 37.0 °F 93% 29.97 in 7.0 mi Calm Calm - N/A   Clear
11:14 PM 38.5 °F 36.5 °F 93% 29.97 in 5.0 mi Calm Calm - N/A   Clear
11:34 PM 39.4 °F 37.6 °F 93% 29.98 in 5.0 mi Calm Calm - N/A   Clear
11:54 PM 38.7 °F 36.7 °F 93% 29.97 in 3.0 mi Calm Calm - N/A   Clear